createdAt,value
2022-10-08T00:00:01.812Z,45.08
2022-10-08T00:02:43.125Z,40.85
2022-10-08T00:05:14.930Z,40.78
2022-10-08T00:07:47.999Z,47.22
2022-10-08T00:10:19.603Z,39.30
2022-10-08T00:12:51.456Z,37.45
2022-10-08T00:15:26.161Z,40.78
2022-10-08T00:17:57.893Z,46.97
2022-10-08T00:20:29.533Z,40.35
2022-10-08T00:23:02.079Z,40.22
2022-10-08T00:25:42.465Z,41.50
2022-10-08T00:28:19.269Z,40.60
2022-10-08T00:30:50.943Z,35.72
2022-10-08T00:33:22.760Z,37.90
2022-10-08T00:35:54.549Z,41.08
2022-10-08T00:38:27.689Z,37.08
2022-10-08T00:41:02.407Z,40.17
2022-10-08T00:43:40.632Z,37.92
2022-10-08T00:46:47.095Z,37.67
2022-10-08T00:49:27.612Z,37.65
2022-10-08T00:52:04.595Z,40.78
2022-10-08T00:54:39.113Z,37.60
2022-10-08T00:57:12.681Z,39.38
2022-10-08T00:59:44.529Z,34.75
2022-10-08T01:02:22.244Z,37.65
2022-10-08T01:04:54.058Z,40.15
2022-10-08T01:07:44.948Z,38.95
2022-10-08T01:10:25.406Z,33.85
2022-10-08T01:13:25.260Z,37.88
2022-10-08T01:16:01.011Z,37.45
2022-10-08T01:18:50.741Z,37.05
2022-10-08T01:21:47.572Z,35.03
2022-10-08T01:25:13.186Z,37.40
2022-10-08T01:27:55.743Z,35.20
2022-10-08T01:30:30.357Z,36.60
2022-10-08T01:35:53.836Z,35.17
2022-10-08T01:38:29.746Z,34.30
2022-10-08T01:41:07.748Z,37.55
2022-10-08T01:43:50.769Z,38.15
2022-10-08T01:46:27.093Z,36.90
2022-10-08T01:49:13.696Z,35.70
2022-10-08T01:51:53.997Z,36.72
2022-10-08T01:54:30.443Z,35.05
2022-10-08T01:57:05.810Z,36.58
2022-10-08T01:59:42.941Z,37.28
2022-10-08T02:02:20.529Z,36.72
2022-10-08T02:04:57.908Z,40.00
2022-10-08T02:07:40.058Z,35.00
2022-10-08T02:10:15.283Z,31.50
2022-10-08T02:12:47.126Z,31.00
2022-10-08T02:15:23.504Z,31.90
2022-10-08T02:17:58.593Z,32.10
2022-10-08T02:20:45.374Z,32.92
2022-10-08T02:23:29.802Z,31.73
2022-10-08T02:26:04.433Z,37.65
2022-10-08T02:29:13.460Z,37.35
2022-10-08T02:31:50.626Z,35.92
2022-10-08T02:34:28.976Z,45.92
2022-10-08T02:37:10.700Z,32.72
2022-10-08T02:39:48.206Z,37.13
2022-10-08T02:42:24.885Z,37.88
2022-10-08T02:45:07.587Z,34.15
2022-10-08T02:47:43.600Z,34.10
2022-10-08T02:50:20.638Z,37.95
2022-10-08T02:52:56.225Z,34.78
2022-10-08T02:55:57.082Z,35.55
2022-10-08T02:58:32.086Z,31.25
2022-10-08T03:01:10.439Z,31.63
2022-10-08T03:03:55.271Z,33.47
2022-10-08T03:06:30.102Z,28.48
2022-10-08T03:09:08.932Z,28.08
2022-10-08T03:11:41.397Z,28.90
2022-10-08T03:14:18.342Z,30.13
2022-10-08T03:16:54.209Z,28.23
2022-10-08T03:19:28.685Z,30.35
2022-10-08T03:22:02.131Z,29.92
2022-10-08T03:24:35.203Z,30.63
2022-10-08T03:27:06.926Z,32.53
2022-10-08T03:29:38.631Z,31.58
2022-10-08T03:32:10.574Z,29.75
2022-10-08T03:34:42.887Z,31.13
2022-10-08T03:37:14.549Z,29.45
2022-10-08T03:39:46.540Z,28.95
2022-10-08T03:42:18.263Z,29.30
2022-10-08T03:44:49.953Z,29.55
2022-10-08T03:47:21.711Z,28.23
2022-10-08T03:49:55.574Z,29.03
2022-10-08T03:52:27.539Z,28.73
2022-10-08T03:55:01.220Z,27.23
2022-10-08T03:57:33.502Z,28.80
2022-10-08T04:00:05.766Z,32.33
2022-10-08T04:02:37.901Z,27.60
2022-10-08T04:05:12.868Z,31.67
2022-10-08T04:07:44.575Z,34.75
2022-10-08T04:10:19.490Z,30.95
2022-10-08T04:12:51.180Z,32.70
2022-10-08T04:15:22.830Z,29.15
2022-10-08T04:17:54.582Z,30.73
2022-10-08T04:20:26.506Z,31.92
2022-10-08T04:23:00.954Z,29.58
2022-10-08T04:25:32.863Z,29.23
2022-10-08T04:28:06.063Z,32.40
2022-10-08T04:30:41.917Z,28.52
2022-10-08T04:33:13.648Z,29.10
2022-10-08T04:35:45.438Z,24.83
2022-10-08T04:38:17.329Z,27.23
2022-10-08T04:40:52.213Z,32.20
2022-10-08T04:43:24.133Z,25.77
2022-10-08T04:45:55.971Z,28.35
2022-10-08T04:48:28.748Z,27.73
2022-10-08T04:51:08.033Z,28.98
2022-10-08T04:53:42.494Z,27.45
2022-10-08T04:56:20.495Z,30.02
2022-10-08T04:58:55.094Z,27.00
2022-10-08T05:01:27.955Z,24.77
2022-10-08T05:03:59.970Z,23.90
2022-10-08T05:06:32.102Z,25.35
2022-10-08T05:09:04.678Z,28.20
2022-10-08T05:11:36.324Z,29.25
2022-10-08T05:14:08.342Z,26.23
2022-10-08T05:16:40.001Z,27.85
2022-10-08T05:19:11.649Z,26.17
2022-10-08T05:21:44.335Z,26.50
2022-10-08T05:24:16.048Z,24.48
2022-10-08T05:26:58.617Z,25.80
2022-10-08T05:29:32.975Z,25.92
2022-10-08T05:32:04.955Z,24.83
2022-10-08T05:34:36.824Z,24.13
2022-10-08T05:37:08.567Z,26.63
2022-10-08T05:39:40.248Z,24.88
2022-10-08T05:42:14.776Z,23.25
2022-10-08T05:44:46.429Z,23.77
2022-10-08T05:47:18.183Z,24.25
2022-10-08T05:49:49.831Z,23.75
2022-10-08T05:52:21.586Z,24.80
2022-10-08T05:54:53.284Z,21.75
2022-10-08T05:57:24.976Z,23.85
2022-10-08T05:59:56.909Z,23.65
2022-10-08T06:02:28.752Z,23.55
2022-10-08T06:05:00.457Z,23.27
2022-10-08T06:07:32.158Z,23.65
2022-10-08T06:10:04.237Z,22.05
2022-10-08T06:12:38.006Z,25.02
2022-10-08T06:15:10.210Z,22.70
2022-10-08T06:17:43.925Z,23.60
2022-10-08T06:20:15.696Z,23.83
2022-10-08T06:22:47.848Z,20.10
2022-10-08T06:25:22.479Z,20.67
2022-10-08T06:27:54.254Z,23.38
2022-10-08T06:30:26.155Z,20.63
2022-10-08T06:32:57.975Z,19.67
2022-10-08T06:35:30.252Z,20.90
2022-10-08T06:38:02.836Z,20.77
2022-10-08T06:40:39.020Z,18.38
2022-10-08T06:43:16.633Z,20.73
2022-10-08T06:45:48.328Z,19.42
2022-10-08T06:48:20.054Z,18.65
2022-10-08T06:51:01.666Z,18.25
2022-10-08T06:53:34.802Z,21.23
2022-10-08T06:56:10.795Z,20.33
2022-10-08T06:58:44.923Z,19.50
2022-10-08T07:01:23.375Z,16.90
2022-10-08T07:04:00.556Z,21.48
2022-10-08T07:06:32.422Z,19.98
2022-10-08T07:09:05.390Z,16.90
2022-10-08T07:11:38.373Z,18.33
2022-10-08T07:14:11.102Z,18.15
2022-10-08T07:16:42.828Z,18.73
2022-10-08T07:19:15.311Z,18.63
2022-10-08T07:21:47.052Z,16.92
2022-10-08T07:24:18.799Z,17.20
2022-10-08T07:26:50.532Z,17.10
2022-10-08T07:29:24.702Z,16.83
2022-10-08T07:31:56.449Z,15.85
2022-10-08T07:34:32.950Z,16.63
2022-10-08T07:37:04.631Z,15.00
2022-10-08T07:39:36.780Z,15.43
2022-10-08T07:42:08.406Z,15.10
2022-10-08T07:44:40.212Z,19.98
2022-10-08T07:47:11.832Z,16.02
2022-10-08T07:49:45.572Z,14.65
2022-10-08T07:52:18.497Z,18.63
2022-10-08T07:54:50.195Z,16.23
2022-10-08T07:57:21.915Z,16.05
2022-10-08T07:59:56.376Z,17.40
2022-10-08T08:02:28.477Z,15.68
2022-10-08T08:05:00.371Z,18.98
2022-10-08T08:07:31.963Z,18.48
2022-10-08T08:10:04.110Z,15.43
2022-10-08T08:12:35.773Z,15.25
2022-10-08T08:15:09.080Z,18.98
2022-10-08T08:17:40.934Z,13.95
2022-10-08T08:20:12.780Z,16.67
2022-10-08T08:22:44.697Z,18.73
2022-10-08T08:25:17.027Z,14.60
2022-10-08T08:27:48.999Z,14.85
2022-10-08T08:30:20.811Z,14.32
2022-10-08T08:32:52.922Z,14.93
2022-10-08T08:35:27.671Z,15.88
2022-10-08T08:37:59.415Z,15.90
2022-10-08T08:40:31.087Z,15.35
2022-10-08T08:43:02.760Z,16.73
2022-10-08T08:45:51.874Z,14.18
2022-10-08T08:48:33.208Z,15.80
2022-10-08T08:51:05.135Z,15.70
2022-10-08T08:53:36.804Z,15.20
2022-10-08T08:56:13.109Z,16.80
2022-10-08T08:59:18.246Z,20.52
2022-10-08T09:01:51.233Z,15.98
2022-10-08T09:04:48.909Z,16.25
2022-10-08T09:07:26.263Z,17.65
2022-10-08T09:09:59.515Z,17.38
2022-10-08T09:12:37.890Z,16.03
2022-10-08T09:15:23.890Z,18.05
2022-10-08T09:17:55.630Z,18.10
2022-10-08T09:20:28.711Z,17.30
2022-10-08T09:23:00.594Z,18.23
2022-10-08T09:25:34.376Z,20.05
2022-10-08T09:28:07.304Z,21.98
2022-10-08T09:30:42.849Z,18.80
2022-10-08T09:33:18.608Z,18.75
2022-10-08T09:35:52.591Z,19.02
2022-10-08T09:38:32.724Z,23.27
2022-10-08T09:41:17.820Z,18.48
2022-10-08T09:44:11.434Z,16.67
2022-10-08T09:46:46.889Z,18.45
2022-10-08T09:49:35.273Z,17.35
2022-10-08T09:52:22.298Z,17.77
2022-10-08T09:55:02.188Z,21.55
2022-10-08T09:57:44.027Z,16.90
2022-10-08T10:00:37.174Z,21.27
2022-10-08T10:03:17.944Z,19.45
2022-10-08T10:05:55.285Z,20.25
2022-10-08T10:08:53.105Z,18.67
2022-10-08T10:11:31.419Z,26.17
2022-10-08T10:14:26.130Z,19.35
2022-10-08T10:17:05.811Z,18.80
2022-10-08T10:20:05.219Z,20.15
2022-10-08T10:22:54.260Z,20.30
2022-10-08T10:25:33.066Z,23.33
2022-10-08T10:28:13.569Z,22.17
2022-10-08T10:30:53.102Z,21.52
2022-10-08T10:33:32.554Z,21.48
2022-10-08T10:36:09.595Z,18.95
2022-10-08T10:38:52.234Z,19.13
2022-10-08T10:42:02.085Z,23.30
2022-10-08T10:44:52.565Z,20.75
2022-10-08T10:47:32.065Z,22.33
2022-10-08T10:50:06.004Z,21.55
2022-10-08T10:53:05.744Z,18.20
2022-10-08T10:55:44.745Z,20.30
2022-10-08T10:58:37.798Z,19.42
2022-10-08T11:01:12.578Z,18.42
2022-10-08T11:04:01.481Z,18.63
2022-10-08T11:06:56.429Z,16.65
2022-10-08T11:09:34.400Z,18.48
2022-10-08T11:12:46.272Z,17.98
2022-10-08T11:15:26.659Z,15.10
2022-10-08T11:18:14.510Z,16.92
2022-10-08T11:21:07.236Z,19.65
2022-10-08T11:23:45.219Z,15.32
2022-10-08T11:26:22.835Z,14.90
2022-10-08T11:29:04.705Z,13.55
2022-10-08T11:31:49.230Z,16.83
2022-10-08T11:34:29.828Z,16.23
2022-10-08T11:37:20.986Z,14.35
2022-10-08T11:40:15.707Z,14.43
2022-10-08T11:43:08.643Z,20.08
2022-10-08T11:45:43.144Z,18.88
2022-10-08T11:51:20.160Z,15.20
2022-10-08T11:54:03.712Z,15.20
2022-10-08T11:56:39.155Z,14.50
2022-10-08T11:59:28.193Z,15.35
2022-10-08T12:02:18.795Z,15.55
2022-10-08T12:04:55.797Z,14.55
2022-10-08T12:07:33.219Z,16.88
2022-10-08T12:10:20.030Z,16.67
2022-10-08T12:12:51.859Z,16.10
2022-10-08T12:15:23.648Z,16.30
2022-10-08T12:17:58.020Z,16.52
2022-10-08T12:20:37.709Z,16.05
2022-10-08T12:23:34.462Z,18.65
2022-10-08T12:26:10.272Z,20.23
2022-10-08T12:28:50.991Z,17.98
2022-10-08T12:31:40.208Z,18.52
2022-10-08T12:34:17.969Z,14.40
2022-10-08T12:37:13.513Z,17.13
2022-10-08T12:39:53.573Z,13.80
2022-10-08T12:42:34.337Z,20.97
2022-10-08T12:45:25.989Z,17.10
2022-10-08T12:48:19.458Z,13.98
2022-10-08T12:51:13.145Z,13.73
2022-10-08T12:53:48.686Z,17.33
2022-10-08T12:56:28.171Z,19.35
2022-10-08T12:59:03.670Z,16.88
2022-10-08T13:01:42.969Z,18.90
2022-10-08T13:04:18.570Z,15.18
2022-10-08T13:06:52.761Z,16.63
2022-10-08T13:09:27.746Z,25.15
2022-10-08T13:12:05.938Z,15.27
2022-10-08T13:14:39.528Z,17.35
2022-10-08T13:17:43.618Z,18.63
2022-10-08T13:20:21.902Z,16.80
2022-10-08T13:22:53.694Z,14.88
2022-10-08T13:25:31.480Z,17.98
2022-10-08T13:28:41.827Z,15.57
2022-10-08T13:31:23.273Z,13.23
2022-10-08T13:33:55.117Z,15.38
2022-10-08T13:36:26.754Z,16.25
2022-10-08T13:38:58.649Z,13.05
2022-10-08T13:41:30.327Z,13.57
2022-10-08T13:44:06.762Z,14.93
2022-10-08T13:46:42.455Z,12.98
2022-10-08T13:49:23.094Z,12.35
2022-10-08T13:51:58.731Z,19.73
2022-10-08T13:54:34.127Z,13.63
2022-10-08T13:57:08.598Z,12.45
2022-10-08T13:59:40.439Z,13.52
2022-10-08T14:02:14.312Z,14.13
2022-10-08T14:04:47.106Z,18.45
2022-10-08T14:07:31.123Z,15.27
2022-10-08T14:10:04.047Z,14.98
2022-10-08T14:12:35.761Z,18.33
2022-10-08T14:15:10.253Z,11.80
2022-10-08T14:20:16.690Z,17.30
2022-10-08T14:22:48.355Z,14.65
2022-10-08T14:25:23.520Z,15.38
2022-10-08T14:27:55.209Z,12.57
2022-10-08T14:30:28.124Z,14.85
2022-10-08T14:32:59.888Z,11.20
2022-10-08T14:35:31.789Z,10.77
2022-10-08T14:38:03.850Z,11.15
2022-10-08T14:40:35.888Z,12.02
2022-10-08T14:43:07.899Z,11.13
2022-10-08T14:45:39.819Z,11.38
2022-10-08T14:48:11.644Z,12.45
2022-10-08T14:50:43.350Z,17.55
2022-10-08T14:53:15.051Z,9.82
2022-10-08T14:56:10.490Z,11.60
2022-10-08T14:58:40.595Z,10.73
2022-10-08T15:01:12.506Z,10.60
2022-10-08T15:03:45.758Z,13.77
2022-10-08T15:06:17.580Z,9.88
2022-10-08T15:08:49.409Z,10.18
2022-10-08T15:11:21.131Z,14.70
2022-10-08T15:13:53.773Z,10.48
2022-10-08T15:16:25.872Z,7.97
2022-10-08T15:18:57.581Z,9.25
2022-10-08T15:21:29.355Z,9.98
2022-10-08T15:24:01.072Z,10.93
2022-10-08T15:26:33.849Z,9.60
2022-10-08T15:29:05.510Z,7.85
2022-10-08T15:31:37.318Z,11.50
2022-10-08T15:34:16.388Z,11.68
2022-10-08T15:36:48.398Z,9.48
2022-10-08T15:39:20.701Z,9.15
2022-10-08T15:41:54.474Z,8.50
2022-10-08T15:44:31.545Z,8.70
2022-10-08T15:47:07.300Z,8.25
2022-10-08T15:49:41.832Z,8.70
2022-10-08T15:54:47.522Z,10.15
2022-10-08T15:57:19.418Z,10.90
2022-10-08T15:59:51.079Z,11.65
2022-10-08T16:02:25.054Z,13.43
2022-10-08T16:04:57.123Z,10.73
2022-10-08T16:07:32.088Z,9.25
2022-10-08T16:10:04.191Z,10.20
2022-10-08T16:12:35.837Z,9.95
2022-10-08T16:15:09.347Z,8.00
2022-10-08T16:17:41.063Z,9.83
2022-10-08T16:20:12.782Z,11.98
2022-10-08T16:22:47.007Z,15.15
2022-10-08T16:25:18.918Z,12.73
2022-10-08T16:27:50.970Z,14.43
2022-10-08T16:30:22.962Z,15.38
2022-10-08T16:32:56.682Z,14.45
2022-10-08T16:35:28.368Z,12.00
2022-10-08T16:38:00.057Z,14.88
2022-10-08T16:40:31.755Z,13.75
2022-10-08T16:43:03.615Z,17.77
2022-10-08T16:45:39.581Z,12.35
2022-10-08T16:48:11.394Z,16.10
2022-10-08T16:50:43.067Z,12.40
2022-10-08T16:53:19.088Z,16.45
2022-10-08T16:58:22.294Z,17.13
2022-10-08T17:00:53.999Z,13.95
2022-10-08T17:03:25.995Z,15.27
2022-10-08T17:05:57.935Z,18.20
2022-10-08T17:08:32.832Z,13.48
2022-10-08T17:11:09.859Z,15.80
2022-10-08T17:13:47.310Z,12.45
2022-10-08T17:16:20.796Z,18.15
2022-10-08T17:18:54.318Z,16.15
2022-10-08T17:21:30.525Z,20.75
2022-10-08T17:24:03.042Z,15.93
2022-10-08T17:26:35.075Z,13.38
2022-10-08T17:29:09.578Z,16.27
2022-10-08T17:31:41.738Z,16.02
2022-10-08T17:34:13.456Z,15.32
2022-10-08T17:36:45.177Z,15.93
2022-10-08T17:39:16.859Z,15.65
2022-10-08T17:41:48.659Z,15.15
2022-10-08T17:44:20.425Z,13.95
2022-10-08T17:46:52.172Z,16.70
2022-10-08T17:49:24.109Z,13.18
2022-10-08T17:51:55.764Z,13.90
2022-10-08T17:54:27.543Z,13.70
2022-10-08T17:56:59.999Z,14.43
2022-10-08T17:59:31.900Z,12.38
2022-10-08T18:02:03.762Z,15.77
2022-10-08T18:04:35.562Z,12.98
2022-10-08T18:07:07.316Z,9.80
2022-10-08T18:09:39.028Z,10.73
2022-10-08T18:12:10.982Z,9.35
2022-10-08T18:14:45.610Z,15.63
2022-10-08T18:19:49.094Z,15.68
2022-10-08T18:22:22.918Z,10.63
2022-10-08T18:24:54.687Z,10.38
2022-10-08T18:27:26.328Z,12.40
2022-10-08T18:29:58.040Z,11.68
2022-10-08T18:32:29.746Z,8.85
2022-10-08T18:35:01.498Z,11.52
2022-10-08T18:37:33.181Z,10.20
2022-10-08T18:40:06.494Z,6.13
2022-10-08T18:42:38.291Z,8.07
2022-10-08T18:45:12.429Z,5.93
2022-10-08T18:47:44.308Z,10.30
2022-10-08T18:50:16.063Z,7.63
2022-10-08T18:52:47.995Z,9.07
2022-10-08T18:55:19.817Z,8.75
2022-10-08T18:57:53.268Z,7.68
2022-10-08T19:00:24.962Z,5.50
2022-10-08T19:05:31.517Z,6.20
2022-10-08T19:08:04.220Z,3.20
2022-10-08T19:10:36.052Z,4.95
2022-10-08T19:13:07.804Z,4.68
2022-10-08T19:15:39.764Z,4.85
2022-10-08T19:18:11.450Z,4.70
2022-10-08T19:20:43.096Z,5.80
2022-10-08T19:23:15.091Z,5.97
2022-10-08T19:25:47.081Z,3.47
2022-10-08T19:28:18.964Z,2.70
2022-10-08T19:30:50.769Z,5.03
2022-10-08T19:33:22.834Z,5.13
2022-10-08T19:36:00.975Z,3.75
2022-10-08T19:38:32.615Z,4.53
2022-10-08T19:41:08.890Z,6.95
2022-10-08T19:43:43.413Z,5.57
2022-10-08T19:48:51.375Z,5.00
2022-10-08T19:51:24.730Z,4.88
2022-10-08T19:53:57.658Z,5.20
2022-10-08T19:56:31.026Z,5.45
2022-10-08T19:59:03.191Z,4.15
2022-10-08T20:01:37.250Z,4.18
2022-10-08T20:04:11.061Z,5.43
2022-10-08T20:06:44.721Z,4.82
2022-10-08T20:09:16.806Z,4.82
2022-10-08T20:11:48.520Z,4.50
2022-10-08T20:14:20.907Z,4.40
2022-10-08T20:16:52.672Z,5.00
2022-10-08T20:19:27.067Z,5.00
2022-10-08T20:21:58.827Z,7.07
2022-10-08T20:24:36.531Z,5.43
2022-10-08T20:27:08.271Z,3.93
2022-10-08T20:29:39.950Z,4.28
2022-10-08T20:32:12.228Z,4.45
2022-10-08T20:34:46.820Z,3.78
2022-10-08T20:39:50.236Z,5.22
2022-10-08T20:42:23.488Z,5.28
2022-10-08T20:44:55.562Z,5.28
2022-10-08T20:47:27.311Z,6.78
2022-10-08T20:49:59.004Z,4.40
2022-10-08T20:52:30.800Z,3.85
2022-10-08T20:55:06.363Z,5.32
2022-10-08T20:57:38.130Z,4.90
2022-10-08T21:00:10.363Z,6.18
2022-10-08T21:02:42.047Z,5.43
2022-10-08T21:05:14.458Z,7.00
2022-10-08T21:07:46.284Z,5.45
2022-10-08T21:10:21.954Z,5.53
2022-10-08T21:12:56.257Z,6.32
2022-10-08T21:15:27.982Z,4.60
2022-10-08T21:17:59.725Z,5.32
2022-10-08T21:20:35.315Z,5.60
2022-10-08T21:23:09.985Z,4.65
2022-10-08T21:25:41.819Z,7.55
2022-10-08T21:28:13.702Z,4.82
2022-10-08T21:30:55.716Z,7.88
2022-10-08T21:33:27.514Z,6.47
2022-10-08T21:35:59.235Z,6.38
2022-10-08T21:38:31.156Z,5.78
2022-10-08T21:41:11.690Z,4.82
2022-10-08T21:43:51.919Z,4.53
2022-10-08T21:46:26.469Z,5.72
2022-10-08T21:49:00.729Z,7.70
2022-10-08T21:51:33.725Z,5.97
2022-10-08T21:54:06.779Z,5.63
2022-10-08T21:56:40.019Z,7.40
2022-10-08T21:59:14.608Z,5.22
2022-10-08T22:01:50.637Z,5.80
2022-10-08T22:04:24.601Z,4.95
2022-10-08T22:07:01.872Z,4.45
2022-10-08T22:09:34.870Z,4.95
2022-10-08T22:12:06.646Z,7.28
2022-10-08T22:14:38.435Z,7.03
2022-10-08T22:17:10.135Z,5.80
2022-10-08T22:19:41.839Z,4.18
2022-10-08T22:22:13.473Z,6.68
2022-10-08T22:24:45.145Z,5.68
2022-10-08T22:27:16.795Z,5.18
2022-10-08T22:29:48.499Z,5.53
2022-10-08T22:32:23.139Z,5.82
2022-10-08T22:37:26.380Z,5.18
2022-10-08T22:39:58.252Z,5.43
2022-10-08T22:42:31.037Z,5.50
2022-10-08T22:45:03.029Z,4.47
2022-10-08T22:47:37.701Z,5.68
2022-10-08T22:52:41.291Z,8.50
2022-10-08T22:55:14.908Z,6.82
2022-10-08T22:57:49.988Z,9.88
2022-10-08T23:00:21.665Z,6.97
2022-10-08T23:02:53.352Z,8.40
2022-10-08T23:05:25.030Z,6.75
2022-10-08T23:07:57.257Z,6.22
2022-10-08T23:10:28.948Z,6.15
2022-10-08T23:13:01.812Z,7.95
2022-10-08T23:15:33.510Z,6.63
2022-10-08T23:18:08.152Z,7.15
2022-10-08T23:23:11.375Z,6.82
2022-10-08T23:25:59.125Z,6.50
2022-10-08T23:28:33.070Z,7.72
2022-10-08T23:31:08.216Z,5.80
2022-10-08T23:33:43.812Z,6.95
2022-10-08T23:36:24.445Z,6.68
2022-10-08T23:38:58.911Z,8.82
2022-10-08T23:41:30.804Z,7.57
2022-10-08T23:44:05.538Z,6.25
2022-10-08T23:49:08.842Z,8.10
2022-10-08T23:51:40.660Z,6.38
2022-10-08T23:54:12.394Z,9.25
2022-10-08T23:56:44.144Z,6.82
2022-10-08T23:59:15.861Z,8.95
